Alamo, Texas
Current Conditions -  °F | °C
As of 12:53 AM on Thursday 23 Oct 2014 (Local Time) from KMFE Reporting Station
Overcast Overcast  
Wind Chill: 74°   Ceiling: 8000
Heat Index: 74°   Visibility: 10mi
Dew Point: 67°   Wind: 5mph
Humidity: 79%   Direction: 60°ENE
Pressure: 30.04"   Gusts: NA
Location:  26.18°N, 98.12°W
Report Text: KMFE 230553Z AUTO 06004KT 10SM OVC080 23/19 A3004 RMK AO2 SLP171 T02330194 10261 20233 402940217 50002
Loading
Personal Weather Stations






























Interactive Weather Map
Tropical Storm Tracking
New forecast layout! Learn more

10-Day Weather Forecast

Advertisements
Track Severe Weather on mobile